createdAt,value
2019-05-01T00:02:21.021Z,63.49
2019-05-01T00:05:10.917Z,64.52
2019-05-01T00:07:41.935Z,64.37
2019-05-01T00:10:12.857Z,63.30
2019-05-01T00:12:43.624Z,62.99
2019-05-01T00:15:14.666Z,64.78
2019-05-01T00:17:45.730Z,63.49
2019-05-01T00:20:16.783Z,63.13
2019-05-01T00:22:47.813Z,63.12
2019-05-01T00:25:18.681Z,65.04
2019-05-01T00:27:49.885Z,64.80
2019-05-01T00:30:29.657Z,64.28
2019-05-01T00:32:58.393Z,65.82
2019-05-01T00:35:29.330Z,65.71
2019-05-01T00:38:00.475Z,65.11
2019-05-01T00:40:31.422Z,64.44
2019-05-01T00:43:02.718Z,65.36
2019-05-01T00:45:33.732Z,64.84
2019-05-01T00:48:04.997Z,65.10
2019-05-01T00:50:36.007Z,64.99
2019-05-01T00:56:03.236Z,64.53
2019-05-01T00:58:56.216Z,66.20
2019-05-01T01:01:56.211Z,65.75
2019-05-01T01:04:27.461Z,64.81
2019-05-01T01:06:58.639Z,65.73
2019-05-01T01:09:30.174Z,65.96
2019-05-01T01:12:01.061Z,67.04
2019-05-01T01:14:31.947Z,68.41
2019-05-01T01:17:02.782Z,67.07
2019-05-01T01:19:33.572Z,69.30
2019-05-01T01:22:04.556Z,67.10
2019-05-01T01:24:35.552Z,67.21
2019-05-01T01:27:06.491Z,66.36
2019-05-01T01:29:37.408Z,65.37
2019-05-01T01:32:08.502Z,64.94
2019-05-01T01:34:39.447Z,66.04
2019-05-01T01:37:10.435Z,67.74
2019-05-01T01:39:41.534Z,67.13
2019-05-01T01:42:12.439Z,65.95
2019-05-01T01:44:55.942Z,66.51
2019-05-01T01:47:27.217Z,67.04
2019-05-01T01:49:58.389Z,66.55
2019-05-01T01:52:30.055Z,65.63
2019-05-01T01:55:01.537Z,65.82
2019-05-01T01:57:32.326Z,66.31
2019-05-01T02:00:05.134Z,66.66
2019-05-01T02:02:41.244Z,66.61
2019-05-01T02:05:17.642Z,66.69
2019-05-01T02:07:48.639Z,68.72
2019-05-01T02:10:19.683Z,69.04
2019-05-01T02:12:50.788Z,68.52
2019-05-01T02:15:21.668Z,67.86
2019-05-01T02:17:52.670Z,67.53
2019-05-01T02:20:23.635Z,67.63
2019-05-01T02:22:54.507Z,68.03
2019-05-01T02:25:25.518Z,67.69
2019-05-01T02:28:33.673Z,67.41
2019-05-01T02:31:27.083Z,69.17
2019-05-01T02:33:49.303Z,68.28
2019-05-01T02:36:20.286Z,69.01
2019-05-01T02:38:51.206Z,68.24
2019-05-01T02:41:22.182Z,69.38
2019-05-01T02:43:54.959Z,71.78
2019-05-01T02:46:25.980Z,68.87
2019-05-01T02:49:06.655Z,68.47
2019-05-01T02:51:37.892Z,66.97
2019-05-01T02:54:09.121Z,68.07
2019-05-01T02:56:46.335Z,68.79
2019-05-01T02:59:17.372Z,69.06
2019-05-01T03:01:48.459Z,68.71
2019-05-01T03:04:19.280Z,68.18
2019-05-01T03:06:50.242Z,69.20
2019-05-01T03:09:21.198Z,69.55
2019-05-01T03:11:52.222Z,68.64
2019-05-01T03:14:23.354Z,70.10
2019-05-01T03:16:54.242Z,69.76
2019-05-01T03:19:42.834Z,68.05
2019-05-01T03:22:37.231Z,68.17
2019-05-01T03:25:08.580Z,71.52
2019-05-01T03:27:39.518Z,72.23
2019-05-01T03:30:10.632Z,71.61
2019-05-01T03:32:41.723Z,75.60
2019-05-01T03:35:12.592Z,73.88
2019-05-01T03:37:43.512Z,75.68
2019-05-01T03:40:16.502Z,74.95
2019-05-01T03:42:47.382Z,74.72
2019-05-01T03:45:18.217Z,74.62
2019-05-01T03:47:49.155Z,73.95
2019-05-01T03:50:20.208Z,75.38
2019-05-01T03:52:51.318Z,74.61
2019-05-01T03:55:22.271Z,74.37
2019-05-01T03:57:53.223Z,74.72
2019-05-01T04:00:35.453Z,75.10
2019-05-01T04:03:26.650Z,76.17
2019-05-01T04:05:57.852Z,76.51
2019-05-01T04:08:29.089Z,76.02
2019-05-01T04:11:00.273Z,75.59
2019-05-01T04:13:31.283Z,75.40
2019-05-01T04:16:02.182Z,76.00
2019-05-01T04:18:33.396Z,75.38
2019-05-01T04:21:04.751Z,75.20
2019-05-01T04:23:36.164Z,75.12
2019-05-01T04:26:08.593Z,76.62
2019-05-01T04:28:58.482Z,75.52
2019-05-01T04:31:40.399Z,76.92
2019-05-01T04:34:27.241Z,75.33
2019-05-01T04:37:00.119Z,74.12
2019-05-01T04:39:31.130Z,74.99
2019-05-01T04:42:02.123Z,74.41
2019-05-01T04:44:33.063Z,74.38
2019-05-01T04:47:03.915Z,74.14
2019-05-01T04:49:35.451Z,74.14
2019-05-01T04:52:06.732Z,74.09
2019-05-01T04:54:41.072Z,73.83
2019-05-01T04:57:12.035Z,73.65
2019-05-01T04:59:42.950Z,74.07
2019-05-01T05:02:16.303Z,74.10
2019-05-01T05:04:47.180Z,74.21
2019-05-01T05:07:18.273Z,73.23
2019-05-01T05:09:49.273Z,74.54
2019-05-01T05:12:29.576Z,75.79
2019-05-01T05:15:06.512Z,75.16
2019-05-01T05:17:37.763Z,73.34
2019-05-01T05:20:09.715Z,74.12
2019-05-01T05:22:40.710Z,75.29
2019-05-01T05:25:11.546Z,75.86
2019-05-01T05:27:42.545Z,76.04
2019-05-01T05:30:13.670Z,75.50
2019-05-01T05:32:44.823Z,75.28
2019-05-01T05:35:16.346Z,75.93
2019-05-01T05:38:09.413Z,75.02
2019-05-01T05:40:44.585Z,75.61
2019-05-01T05:43:15.566Z,76.39
2019-05-01T05:45:46.517Z,74.84
2019-05-01T05:48:17.433Z,75.33
2019-05-01T05:51:19.274Z,74.58
2019-05-01T05:53:52.427Z,75.10
2019-05-01T05:56:27.313Z,75.94
2019-05-01T05:59:03.587Z,75.16
2019-05-01T06:01:52.250Z,74.82
2019-05-01T06:04:37.500Z,75.55
2019-05-01T06:07:13.733Z,74.85
2019-05-01T06:09:51.324Z,74.62
2019-05-01T06:12:32.208Z,76.38
2019-05-01T06:15:14.393Z,74.57
2019-05-01T06:18:02.451Z,74.22
2019-05-01T06:20:57.068Z,74.98
2019-05-01T06:23:52.690Z,75.12
2019-05-01T06:26:32.119Z,74.37
2019-05-01T06:29:02.889Z,74.45
2019-05-01T06:31:35.267Z,74.25
2019-05-01T06:34:06.287Z,74.32
2019-05-01T06:36:37.333Z,74.85
2019-05-01T06:39:11.867Z,75.48
2019-05-01T06:41:45.052Z,74.30
2019-05-01T06:44:33.412Z,74.52
2019-05-01T06:47:11.729Z,74.45
2019-05-01T06:49:56.025Z,73.91
2019-05-01T06:52:29.442Z,74.20
2019-05-01T06:55:00.274Z,74.12
2019-05-01T06:57:31.333Z,74.67
2019-05-01T07:00:03.136Z,76.03
2019-05-01T07:02:35.641Z,77.35
2019-05-01T07:05:13.846Z,75.21
2019-05-01T07:07:43.259Z,76.96
2019-05-01T07:10:14.890Z,77.53
2019-05-01T07:12:46.102Z,78.47
2019-05-01T07:15:17.677Z,78.74
2019-05-01T07:17:49.012Z,78.01
2019-05-01T07:20:41.956Z,79.25
2019-05-01T07:23:17.415Z,77.75
2019-05-01T07:25:46.598Z,77.39
2019-05-01T07:28:17.716Z,77.33
2019-05-01T07:31:01.208Z,77.46
2019-05-01T07:33:32.204Z,75.86
2019-05-01T07:36:06.942Z,75.18
2019-05-01T07:38:38.214Z,74.71
2019-05-01T07:41:08.468Z,75.30
2019-05-01T07:44:09.333Z,76.02
2019-05-01T07:46:54.321Z,76.23
2019-05-01T07:49:54.671Z,76.35
2019-05-01T07:52:26.064Z,75.69
2019-05-01T07:54:58.007Z,74.29
2019-05-01T07:57:29.476Z,75.64
2019-05-01T08:00:03.231Z,75.60
2019-05-01T08:02:33.228Z,75.45
2019-05-01T08:05:10.079Z,75.99
2019-05-01T08:07:38.551Z,75.53
2019-05-01T08:10:09.520Z,75.47
2019-05-01T08:12:40.514Z,76.12
2019-05-01T08:15:11.681Z,74.84
2019-05-01T08:17:53.100Z,74.81
2019-05-01T08:20:28.276Z,73.64
2019-05-01T08:22:59.206Z,73.46
2019-05-01T08:25:33.282Z,74.32
2019-05-01T08:28:13.876Z,74.27
2019-05-01T08:31:02.255Z,74.69
2019-05-01T08:33:51.659Z,74.61
2019-05-01T08:36:24.434Z,74.97
2019-05-01T08:38:55.290Z,75.02
2019-05-01T08:41:27.171Z,74.33
2019-05-01T08:43:58.908Z,73.02
2019-05-01T08:46:52.212Z,73.05
2019-05-01T08:49:30.183Z,73.38
2019-05-01T08:52:04.743Z,71.85
2019-05-01T08:54:34.840Z,72.56
2019-05-01T08:57:07.971Z,73.57
2019-05-01T08:59:38.990Z,73.19
2019-05-01T09:02:10.214Z,73.07
2019-05-01T09:04:41.342Z,72.89
2019-05-01T09:07:14.627Z,71.94
2019-05-01T09:09:47.768Z,72.27
2019-05-01T09:12:23.669Z,73.27
2019-05-01T09:14:54.744Z,72.53
2019-05-01T09:17:27.199Z,73.19
2019-05-01T09:19:58.268Z,73.19
2019-05-01T09:22:29.308Z,73.47
2019-05-01T09:25:01.903Z,73.68
2019-05-01T09:27:44.017Z,73.76
2019-05-01T09:30:26.765Z,73.16
2019-05-01T09:32:55.625Z,72.65
2019-05-01T09:35:29.199Z,72.32
2019-05-01T09:38:00.167Z,72.02
2019-05-01T09:40:31.154Z,71.51
2019-05-01T09:43:08.209Z,71.86
2019-05-01T09:45:41.126Z,72.49
2019-05-01T09:48:26.443Z,74.65
2019-05-01T09:51:19.122Z,73.95
2019-05-01T09:53:59.816Z,72.91
2019-05-01T09:56:34.771Z,72.82
2019-05-01T09:59:07.165Z,73.06
2019-05-01T10:01:38.278Z,72.30
2019-05-01T10:04:19.288Z,72.19
2019-05-01T10:06:52.425Z,72.80
2019-05-01T10:09:26.789Z,72.05
2019-05-01T10:12:00.571Z,72.19
2019-05-01T10:14:57.259Z,72.03
2019-05-01T10:17:30.681Z,70.95
2019-05-01T10:20:07.483Z,70.44
2019-05-01T10:22:39.830Z,70.27
2019-05-01T10:25:13.577Z,69.82
2019-05-01T10:27:49.613Z,69.34
2019-05-01T10:30:50.867Z,69.30
2019-05-01T10:33:28.956Z,69.37
2019-05-01T10:36:18.958Z,69.79
2019-05-01T10:38:51.405Z,72.48
2019-05-01T10:41:23.825Z,71.71
2019-05-01T10:43:55.239Z,71.53
2019-05-01T10:46:26.116Z,69.89
2019-05-01T10:48:57.524Z,69.55
2019-05-01T10:51:28.705Z,69.72
2019-05-01T10:53:59.746Z,69.17
2019-05-01T10:56:30.738Z,69.46
2019-05-01T10:59:01.912Z,69.01
2019-05-01T11:01:41.527Z,68.06
2019-05-01T11:04:12.509Z,67.86
2019-05-01T11:06:44.915Z,68.05
2019-05-01T11:09:15.687Z,69.25
2019-05-01T11:11:46.668Z,70.98
2019-05-01T11:14:17.648Z,70.49
2019-05-01T11:16:48.699Z,70.16
2019-05-01T11:19:19.648Z,68.81
2019-05-01T11:21:52.317Z,67.61
2019-05-01T11:24:23.701Z,67.96
2019-05-01T11:26:55.108Z,67.10
2019-05-01T11:29:26.210Z,67.38
2019-05-01T11:32:34.291Z,66.88
2019-05-01T11:35:34.834Z,67.43
2019-05-01T11:38:17.459Z,66.62
2019-05-01T11:40:54.264Z,65.76
2019-05-01T11:43:31.662Z,66.15
2019-05-01T11:46:02.693Z,65.22
2019-05-01T11:48:33.650Z,64.76
2019-05-01T11:51:04.718Z,63.51
2019-05-01T11:53:35.660Z,63.53
2019-05-01T11:56:07.400Z,62.24
2019-05-01T11:58:38.281Z,62.97
2019-05-01T12:01:11.034Z,61.36
2019-05-01T12:03:42.083Z,61.54
2019-05-01T12:06:22.693Z,61.58
2019-05-01T12:08:46.180Z,61.54
2019-05-01T12:11:18.903Z,61.51
2019-05-01T12:13:52.383Z,60.06
2019-05-01T12:16:43.690Z,61.81
2019-05-01T12:19:14.848Z,60.09
2019-05-01T12:21:45.932Z,63.09
2019-05-01T12:24:18.143Z,61.38
2019-05-01T12:26:49.212Z,61.99
2019-05-01T12:29:20.083Z,60.64
2019-05-01T12:31:51.141Z,59.02
2019-05-01T12:34:22.156Z,58.90
2019-05-01T12:37:12.035Z,58.47
2019-05-01T12:39:45.844Z,58.11
2019-05-01T12:42:18.529Z,56.83
2019-05-01T12:44:51.235Z,57.99
2019-05-01T12:47:32.355Z,57.00
2019-05-01T12:50:06.576Z,57.44
2019-05-01T12:53:02.233Z,58.27
2019-05-01T12:56:04.165Z,57.28
2019-05-01T12:58:39.900Z,56.13
2019-05-01T13:01:12.514Z,56.83
2019-05-01T13:03:44.799Z,58.27
2019-05-01T13:06:18.798Z,56.38
2019-05-01T13:08:52.311Z,58.01
2019-05-01T13:11:23.470Z,57.77
2019-05-01T13:13:54.414Z,56.79
2019-05-01T13:16:26.979Z,56.54
2019-05-01T13:18:58.514Z,55.34
2019-05-01T13:21:29.738Z,56.07
2019-05-01T13:24:00.589Z,54.45
2019-05-01T13:26:46.002Z,55.98
2019-05-01T13:29:45.178Z,54.24
2019-05-01T13:32:33.466Z,53.34
2019-05-01T13:35:04.987Z,54.00
2019-05-01T13:37:36.083Z,55.02
2019-05-01T13:40:07.741Z,54.25
2019-05-01T13:42:38.541Z,53.88
2019-05-01T13:45:12.812Z,52.59
2019-05-01T13:47:49.887Z,52.50
2019-05-01T13:50:21.096Z,53.72
2019-05-01T13:52:52.107Z,52.13
2019-05-01T13:55:23.961Z,50.78
2019-05-01T13:57:57.392Z,53.12
2019-05-01T14:00:32.961Z,52.98
2019-05-01T14:03:04.013Z,52.89
2019-05-01T14:05:34.950Z,52.47
2019-05-01T14:08:07.588Z,52.03
2019-05-01T14:10:38.713Z,51.66
2019-05-01T14:13:23.573Z,51.37
2019-05-01T14:16:00.376Z,51.52
2019-05-01T14:18:34.163Z,51.11
2019-05-01T14:21:37.525Z,50.15
2019-05-01T14:24:18.598Z,50.60
2019-05-01T14:26:49.512Z,51.58
2019-05-01T14:29:20.491Z,50.44
2019-05-01T14:31:51.468Z,50.87
2019-05-01T14:34:22.406Z,52.02
2019-05-01T14:36:53.358Z,51.79
2019-05-01T14:39:24.256Z,51.52
2019-05-01T14:41:55.394Z,51.69
2019-05-01T14:44:36.315Z,51.27
2019-05-01T14:47:00.392Z,52.00
2019-05-01T14:49:34.443Z,52.17
2019-05-01T14:52:06.293Z,50.94
2019-05-01T14:54:37.225Z,50.87
2019-05-01T14:57:08.197Z,50.74
2019-05-01T14:59:39.194Z,52.14
2019-05-01T15:02:10.070Z,50.41
2019-05-01T15:04:41.310Z,51.73
2019-05-01T15:07:12.137Z,52.55
2019-05-01T15:09:43.152Z,52.94
2019-05-01T15:12:14.343Z,52.30
2019-05-01T15:14:58.138Z,52.98
2019-05-01T15:17:40.540Z,52.32
2019-05-01T15:20:13.128Z,53.10
2019-05-01T15:22:44.262Z,53.35
2019-05-01T15:25:15.353Z,52.69
2019-05-01T15:27:46.494Z,52.92
2019-05-01T15:30:19.659Z,53.41
2019-05-01T15:32:50.462Z,52.73
2019-05-01T15:35:21.513Z,53.49
2019-05-01T15:37:56.762Z,52.36
2019-05-01T15:40:33.860Z,53.00
2019-05-01T15:43:39.186Z,52.75
2019-05-01T15:46:10.140Z,53.03
2019-05-01T15:48:41.121Z,52.17
2019-05-01T15:51:12.080Z,52.85
2019-05-01T15:53:43.126Z,52.76
2019-05-01T15:56:14.181Z,53.30
2019-05-01T15:58:45.105Z,53.47
2019-05-01T16:01:16.054Z,53.66
2019-05-01T16:03:47.088Z,52.15
2019-05-01T16:06:18.049Z,52.93
2019-05-01T16:08:49.256Z,53.08
2019-05-01T16:11:42.126Z,52.89
2019-05-01T16:14:13.351Z,52.20
2019-05-01T16:16:44.274Z,53.29
2019-05-01T16:19:15.239Z,53.27
2019-05-01T16:21:46.330Z,53.42
2019-05-01T16:24:19.028Z,54.01
2019-05-01T16:26:51.152Z,54.72
2019-05-01T16:29:25.417Z,54.00
2019-05-01T16:31:56.356Z,54.21
2019-05-01T16:34:28.862Z,54.22
2019-05-01T16:37:02.924Z,54.39
2019-05-01T16:39:52.822Z,54.05
2019-05-01T16:42:37.958Z,54.88
2019-05-01T16:45:09.638Z,54.14
2019-05-01T16:48:14.858Z,55.20
2019-05-01T16:50:53.327Z,55.47
2019-05-01T16:53:27.103Z,55.12
2019-05-01T16:56:01.051Z,55.00
2019-05-01T16:58:35.080Z,54.72
2019-05-01T17:01:10.932Z,55.50
2019-05-01T17:04:07.156Z,54.85
2019-05-01T17:07:00.062Z,55.05
2019-05-01T17:09:52.974Z,54.94
2019-05-01T17:12:30.542Z,54.88
2019-05-01T17:15:02.740Z,55.31
2019-05-01T17:17:36.972Z,55.08
2019-05-01T17:20:10.033Z,55.51
2019-05-01T17:22:41.427Z,55.33
2019-05-01T17:25:12.856Z,55.12
2019-05-01T17:27:43.919Z,55.05
2019-05-01T17:30:20.330Z,54.96
2019-05-01T17:32:51.373Z,55.47
2019-05-01T17:35:22.393Z,55.41
2019-05-01T17:37:53.330Z,55.06
2019-05-01T17:40:24.343Z,55.23
2019-05-01T17:42:55.550Z,55.37
2019-05-01T17:45:29.985Z,55.48
2019-05-01T17:47:59.651Z,55.97
2019-05-01T17:50:30.881Z,56.11
2019-05-01T17:53:01.898Z,56.50
2019-05-01T17:55:32.703Z,57.01
2019-05-01T17:58:03.753Z,57.62
2019-05-01T18:00:54.146Z,57.58
2019-05-01T18:03:49.819Z,57.99
2019-05-01T18:06:24.720Z,57.64
2019-05-01T18:09:02.858Z,57.74
2019-05-01T18:11:28.503Z,57.46
2019-05-01T18:13:59.388Z,57.31
2019-05-01T18:16:31.378Z,57.44
2019-05-01T18:19:02.579Z,57.21
2019-05-01T18:21:33.603Z,57.25
2019-05-01T18:24:32.584Z,57.59
2019-05-01T18:27:22.519Z,58.35
2019-05-01T18:29:55.947Z,57.67
2019-05-01T18:32:36.353Z,57.98
2019-05-01T18:35:08.931Z,58.16
2019-05-01T18:38:11.652Z,58.13
2019-05-01T18:40:46.273Z,58.51
2019-05-01T18:43:17.398Z,58.36
2019-05-01T18:45:51.135Z,58.55
2019-05-01T18:48:22.139Z,58.03
2019-05-01T18:50:55.032Z,58.23
2019-05-01T18:53:26.031Z,57.64
2019-05-01T18:56:01.477Z,58.03
2019-05-01T18:58:29.711Z,57.58
2019-05-01T19:01:03.940Z,57.45
2019-05-01T19:03:37.058Z,57.36
2019-05-01T19:06:09.571Z,57.79
2019-05-01T19:08:40.792Z,57.83
2019-05-01T19:11:13.169Z,58.02
2019-05-01T19:13:44.718Z,57.95
2019-05-01T19:16:17.133Z,57.52
2019-05-01T19:18:48.177Z,57.72
2019-05-01T19:21:24.130Z,58.19
2019-05-01T19:24:01.074Z,57.93
2019-05-01T19:26:32.962Z,57.86
2019-05-01T19:29:17.165Z,57.80
2019-05-01T19:31:48.220Z,58.52
2019-05-01T19:34:19.319Z,59.37
2019-05-01T19:36:51.625Z,58.45
2019-05-01T19:39:24.679Z,57.94
2019-05-01T19:42:00.272Z,58.26
2019-05-01T19:44:34.146Z,58.75
2019-05-01T19:47:08.695Z,58.70
2019-05-01T19:49:39.787Z,59.42
2019-05-01T19:52:16.000Z,59.53
2019-05-01T19:54:49.211Z,59.48
2019-05-01T19:57:22.989Z,59.86
2019-05-01T19:59:54.099Z,60.32
2019-05-01T20:02:28.040Z,60.79
2019-05-01T20:04:59.163Z,60.27
2019-05-01T20:07:30.202Z,60.24
2019-05-01T20:10:05.825Z,60.92
2019-05-01T20:12:36.891Z,60.36
2019-05-01T20:15:08.086Z,60.23
2019-05-01T20:17:39.074Z,60.56
2019-05-01T20:20:09.945Z,60.61
2019-05-01T20:22:48.099Z,60.75
2019-05-01T20:25:23.957Z,61.28
2019-05-01T20:27:57.268Z,60.68
2019-05-01T20:30:28.783Z,61.22
2019-05-01T20:33:03.745Z,61.07
2019-05-01T20:35:35.453Z,61.53
2019-05-01T20:38:06.558Z,61.34
2019-05-01T20:40:37.630Z,61.54
2019-05-01T20:43:08.658Z,61.93
2019-05-01T20:45:39.689Z,61.73
2019-05-01T20:48:18.569Z,61.63
2019-05-01T20:51:03.271Z,61.95
2019-05-01T20:53:32.602Z,61.86
2019-05-01T20:56:24.017Z,61.69
2019-05-01T20:59:03.166Z,62.26
2019-05-01T21:01:33.987Z,62.37
2019-05-01T21:04:19.053Z,62.70
2019-05-01T21:07:20.125Z,62.04
2019-05-01T21:09:57.729Z,62.46
2019-05-01T21:12:26.424Z,62.61
2019-05-01T21:15:29.359Z,62.55
2019-05-01T21:17:56.757Z,63.30
2019-05-01T21:20:28.801Z,63.18
2019-05-01T21:23:05.696Z,64.04
2019-05-01T21:25:35.026Z,64.66
2019-05-01T21:28:08.871Z,64.42
2019-05-01T21:30:43.944Z,65.62
2019-05-01T21:33:16.688Z,65.27
2019-05-01T21:35:53.350Z,65.95
2019-05-01T21:38:37.327Z,66.99
2019-05-01T21:41:11.322Z,66.46
2019-05-01T21:43:43.868Z,65.24
2019-05-01T21:46:15.041Z,65.53
2019-05-01T21:48:45.989Z,65.52
2019-05-01T21:51:17.139Z,65.40
2019-05-01T21:53:55.527Z,65.30
2019-05-01T21:56:27.866Z,64.97
2019-05-01T21:59:06.704Z,65.24
2019-05-01T22:01:34.707Z,65.44
2019-05-01T22:04:06.755Z,66.09
2019-05-01T22:06:37.785Z,65.27
2019-05-01T22:09:15.187Z,65.17
2019-05-01T22:11:46.808Z,65.04
2019-05-01T22:14:37.005Z,65.43
2019-05-01T22:17:14.409Z,65.86
2019-05-01T22:19:45.496Z,66.29
2019-05-01T22:22:24.348Z,65.16
2019-05-01T22:25:18.797Z,65.98
2019-05-01T22:28:18.722Z,66.14
2019-05-01T22:30:55.540Z,65.26
2019-05-01T22:33:27.216Z,65.97
2019-05-01T22:35:58.194Z,66.89
2019-05-01T22:38:29.180Z,67.30
2019-05-01T22:41:13.289Z,65.93
2019-05-01T22:43:44.359Z,65.76
2019-05-01T22:46:28.128Z,65.95
2019-05-01T22:48:59.154Z,66.57
2019-05-01T22:51:30.121Z,66.52
2019-05-01T22:54:01.030Z,66.75
2019-05-01T22:56:32.149Z,66.32
2019-05-01T22:59:03.148Z,65.99
2019-05-01T23:01:34.250Z,66.52
2019-05-01T23:04:07.635Z,66.08
2019-05-01T23:06:41.854Z,66.26
2019-05-01T23:09:11.599Z,66.05
2019-05-01T23:11:45.529Z,65.82
2019-05-01T23:14:17.462Z,66.45
2019-05-01T23:16:58.584Z,65.64
2019-05-01T23:19:29.649Z,66.74
2019-05-01T23:22:00.727Z,66.87
2019-05-01T23:24:31.628Z,67.22
2019-05-01T23:27:02.759Z,67.28
2019-05-01T23:29:33.799Z,67.27
2019-05-01T23:32:06.079Z,66.05
2019-05-01T23:34:37.476Z,66.63
2019-05-01T23:37:08.434Z,66.53
2019-05-01T23:39:40.648Z,66.48
2019-05-01T23:42:12.087Z,66.83
2019-05-01T23:44:44.217Z,67.13
2019-05-01T23:47:15.624Z,66.49
2019-05-01T23:49:47.702Z,66.26
2019-05-01T23:52:19.466Z,66.26
2019-05-01T23:54:50.504Z,66.39
2019-05-01T23:57:21.414Z,66.97
2019-05-01T23:59:52.516Z,67.08
